New York, New York
Traffic Map
Current Weather Conditions
New York, New York
Clear
Clear
72°
Feels Like: 72°
Wind Chill: 72° Ceiling: Unl
Heat Index: 72° Visibility: 10mi
Dew Point: 57° Wind: 3mph
Humidity: 59% Direction: ° ()
Pressure: 30.06in Gusts: 0mph
Raw Report DataKNYC 221151Z AUTO VRB03KT 10SM CLR 22/14 A3006 RMK AO2 SLP168 T02220139 10222 20200 51015 $
Traffic Incident Summary
Active as of:
Severity:
Category:
InformationThere was an issue retrieving the traffic information for this location. Please try a different location or try again shortly.
Advertisements
Track Severe Weather on mobile